CFG4RT EDDL-LEPA
Flight info
| Callsign | CFG4RT |
|---|---|
| Flight time | 2h 6m |
| Altitude | 33000 |
| Route | MODRU2H MODRU Z283 SOPOK DCT ROUSY DCT GTQ DCT POGOL DCT LASAT DCT MOROK DCT GILIR DCT GEVEA DCT INCUS DCT BALSI DCT RETNO DCT TUPOX DCT MTG DCT DIVKO DCT VATIR DCT PIVUS DCT BODEQ DCT VERSO DCT LUNIK |
| Aircraft | A321/M-SDE3FGHIRWY/LB1 |
Departure
| Time | 2026-05-05 08:46 |
|---|---|
| Airport | Düsseldorf Airport (EDDL) |
Arrival
| Time | 2026-05-05 10:52 |
|---|---|
| Airport | Palma de Mallorca Airport (LEPA) |
| Time | Latitude | Longitude | Altitude | Speed | Heading |
|---|---|---|---|---|---|
| 2026-05-05 08:20 | 51.28049 | 6.76216 | 129 ft | 0 kts | 163° |
| 2026-05-05 08:36 | 51.28067 | 6.76207 | 123 ft | 4 kts | 163° |
| 2026-05-05 08:37 | 51.28089 | 6.76196 | 124 ft | 4 kts | 149° |
| 2026-05-05 08:37 | 51.28102 | 6.76170 | 123 ft | 4 kts | 80° |
| 2026-05-05 08:37 | 51.28092 | 6.76132 | 126 ft | 4 kts | 53° |
| 2026-05-05 08:37 | 51.28095 | 6.76139 | 126 ft | 4 kts | 52° |
| 2026-05-05 08:38 | 51.28104 | 6.76157 | 123 ft | 0 kts | 52° |
| 2026-05-05 08:40 | 51.28123 | 6.76198 | 127 ft | 6 kts | 53° |
| 2026-05-05 08:40 | 51.28152 | 6.76255 | 125 ft | 7 kts | 43° |
| 2026-05-05 08:41 | 51.28199 | 6.76237 | 126 ft | 8 kts | 332° |
| 2026-05-05 08:41 | 51.28254 | 6.76274 | 126 ft | 14 kts | 45° |
| 2026-05-05 08:41 | 51.28317 | 6.76405 | 124 ft | 15 kts | 52° |
| 2026-05-05 08:41 | 51.28377 | 6.76540 | 121 ft | 17 kts | 55° |
| 2026-05-05 08:42 | 51.28458 | 6.76713 | 121 ft | 19 kts | 52° |
| 2026-05-05 08:42 | 51.28544 | 6.76892 | 125 ft | 21 kts | 52° |
| 2026-05-05 08:42 | 51.28631 | 6.77071 | 128 ft | 19 kts | 52° |
| 2026-05-05 08:42 | 51.28710 | 6.77236 | 128 ft | 18 kts | 53° |
| 2026-05-05 08:43 | 51.28794 | 6.77412 | 128 ft | 25 kts | 53° |
| 2026-05-05 08:43 | 51.28903 | 6.77641 | 127 ft | 25 kts | 53° |
| 2026-05-05 08:43 | 51.29006 | 6.77859 | 128 ft | 24 kts | 53° |
| 2026-05-05 08:43 | 51.29102 | 6.78060 | 131 ft | 22 kts | 52° |
| 2026-05-05 08:44 | 51.29194 | 6.78206 | 136 ft | 16 kts | 14° |
| 2026-05-05 08:44 | 51.29289 | 6.78151 | 139 ft | 17 kts | 322° |
| 2026-05-05 08:44 | 51.29391 | 6.78029 | 139 ft | 19 kts | 322° |
| 2026-05-05 08:44 | 51.29497 | 6.77900 | 135 ft | 20 kts | 322° |
| 2026-05-05 08:45 | 51.29581 | 6.77718 | 127 ft | 21 kts | 290° |
| 2026-05-05 08:45 | 51.29584 | 6.77496 | 128 ft | 19 kts | 257° |
| 2026-05-05 08:45 | 51.29561 | 6.77372 | 126 ft | 8 kts | 234° |
| 2026-05-05 08:45 | 51.29514 | 6.77273 | 127 ft | 26 kts | 233° |
| 2026-05-05 08:46 | 51.29231 | 6.76680 | 132 ft | 104 kts | 232° |
| 2026-05-05 08:46 | 51.28670 | 6.75502 | 158 ft | 157 kts | 233° |
| 2026-05-05 08:46 | 51.28078 | 6.74116 | 907 ft | 147 kts | 236° |
| 2026-05-05 08:46 | 51.27493 | 6.72741 | 1504 ft | 154 kts | 236° |
| 2026-05-05 08:47 | 51.26839 | 6.71239 | 1727 ft | 175 kts | 234° |
| 2026-05-05 08:47 | 51.26173 | 6.69531 | 2000 ft | 190 kts | 251° |
| 2026-05-05 08:47 | 51.26098 | 6.67381 | 2303 ft | 202 kts | 282° |
| 2026-05-05 08:47 | 51.26666 | 6.65248 | 2588 ft | 215 kts | 300° |
| 2026-05-05 08:48 | 51.27524 | 6.63247 | 3181 ft | 217 kts | 306° |
| 2026-05-05 08:48 | 51.28410 | 6.61331 | 3922 ft | 213 kts | 307° |
| 2026-05-05 08:48 | 51.29315 | 6.59470 | 4575 ft | 211 kts | 308° |
| 2026-05-05 08:48 | 51.30245 | 6.57653 | 5152 ft | 212 kts | 310° |
| 2026-05-05 08:49 | 51.31198 | 6.55881 | 5654 ft | 216 kts | 311° |
| 2026-05-05 08:49 | 51.32234 | 6.54027 | 6076 ft | 225 kts | 312° |
| 2026-05-05 08:49 | 51.33291 | 6.52200 | 6622 ft | 226 kts | 313° |
| 2026-05-05 08:49 | 51.34364 | 6.50347 | 7234 ft | 224 kts | 312° |
| 2026-05-05 08:50 | 51.35408 | 6.48509 | 7683 ft | 233 kts | 312° |
| 2026-05-05 08:50 | 51.36544 | 6.46497 | 7961 ft | 244 kts | 313° |
| 2026-05-05 08:50 | 51.37673 | 6.44506 | 8523 ft | 243 kts | 312° |
| 2026-05-05 08:50 | 51.38756 | 6.42437 | 9069 ft | 244 kts | 308° |
| 2026-05-05 08:51 | 51.39677 | 6.40119 | 9479 ft | 251 kts | 294° |
| 2026-05-05 08:51 | 51.39999 | 6.37383 | 9912 ft | 253 kts | 263° |
| 2026-05-05 08:51 | 51.39409 | 6.34793 | 10417 ft | 250 kts | 236° |
| 2026-05-05 08:51 | 51.38306 | 6.32609 | 10850 ft | 252 kts | 225° |
| 2026-05-05 08:52 | 51.37457 | 6.31296 | 11202 ft | 251 kts | 220° |
| 2026-05-05 08:52 | 51.36064 | 6.29618 | 11659 ft | 253 kts | 210° |
| 2026-05-05 08:52 | 51.34501 | 6.28335 | 12045 ft | 257 kts | 205° |
| 2026-05-05 08:52 | 51.32861 | 6.27125 | 12410 ft | 264 kts | 203° |
| 2026-05-05 08:53 | 51.31148 | 6.25954 | 12747 ft | 269 kts | 201° |
| 2026-05-05 08:53 | 51.29408 | 6.24835 | 13276 ft | 268 kts | 201° |
| 2026-05-05 08:53 | 51.27618 | 6.23710 | 13417 ft | 287 kts | 200° |
| 2026-05-05 08:53 | 51.25683 | 6.22582 | 13566 ft | 305 kts | 199° |
| 2026-05-05 08:54 | 51.23613 | 6.21421 | 13708 ft | 324 kts | 199° |
| 2026-05-05 08:54 | 51.21429 | 6.20207 | 13833 ft | 342 kts | 199° |
| 2026-05-05 08:54 | 51.19124 | 6.18918 | 13953 ft | 359 kts | 199° |
| 2026-05-05 08:54 | 51.16712 | 6.17556 | 14072 ft | 376 kts | 199° |
| 2026-05-05 08:55 | 51.14196 | 6.16124 | 14188 ft | 391 kts | 198° |
| 2026-05-05 08:55 | 51.11602 | 6.14641 | 14435 ft | 401 kts | 199° |
| 2026-05-05 08:55 | 51.08964 | 6.13131 | 14866 ft | 404 kts | 199° |
| 2026-05-05 08:55 | 51.06313 | 6.11613 | 15372 ft | 405 kts | 199° |
| 2026-05-05 08:56 | 51.03656 | 6.10092 | 15895 ft | 406 kts | 199° |
| 2026-05-05 08:56 | 51.01061 | 6.08281 | 16393 ft | 408 kts | 207° |
| 2026-05-05 08:56 | 50.98637 | 6.05926 | 16898 ft | 410 kts | 210° |
| 2026-05-05 08:56 | 50.96215 | 6.03515 | 17397 ft | 411 kts | 211° |
| 2026-05-05 08:57 | 50.93780 | 6.01121 | 17904 ft | 412 kts | 210° |
| 2026-05-05 08:57 | 50.91289 | 5.98846 | 18368 ft | 413 kts | 208° |
| 2026-05-05 08:57 | 50.88757 | 5.96685 | 18760 ft | 415 kts | 207° |
| 2026-05-05 08:57 | 50.86217 | 5.94594 | 19144 ft | 417 kts | 206° |
| 2026-05-05 08:58 | 50.83631 | 5.92484 | 19558 ft | 418 kts | 206° |
| 2026-05-05 08:58 | 50.81010 | 5.90323 | 19953 ft | 420 kts | 207° |
| 2026-05-05 08:58 | 50.78458 | 5.88169 | 20321 ft | 423 kts | 207° |
| 2026-05-05 08:58 | 50.75834 | 5.85915 | 20718 ft | 425 kts | 208° |
| 2026-05-05 08:59 | 50.73274 | 5.83693 | 21122 ft | 426 kts | 208° |
| 2026-05-05 08:59 | 50.70670 | 5.81429 | 21466 ft | 429 kts | 208° |
| 2026-05-05 08:59 | 50.68048 | 5.79155 | 21832 ft | 431 kts | 208° |
| 2026-05-05 08:59 | 50.65374 | 5.76845 | 22230 ft | 434 kts | 208° |
| 2026-05-05 09:00 | 50.62735 | 5.74630 | 22608 ft | 436 kts | 204° |
| 2026-05-05 09:00 | 50.59893 | 5.72951 | 22971 ft | 437 kts | 195° |
| 2026-05-05 09:00 | 50.56904 | 5.72057 | 23331 ft | 438 kts | 185° |
| 2026-05-05 09:00 | 50.53851 | 5.71975 | 23643 ft | 440 kts | 175° |
| 2026-05-05 09:01 | 50.50804 | 5.72534 | 23959 ft | 441 kts | 173° |
| 2026-05-05 09:01 | 50.47753 | 5.73134 | 24309 ft | 442 kts | 173° |
| 2026-05-05 09:01 | 50.44704 | 5.73717 | 24627 ft | 442 kts | 173° |
| 2026-05-05 09:01 | 50.41647 | 5.74289 | 24933 ft | 443 kts | 174° |
| 2026-05-05 09:02 | 50.38578 | 5.74857 | 25242 ft | 444 kts | 174° |
| 2026-05-05 09:02 | 50.35508 | 5.75431 | 25562 ft | 445 kts | 174° |
| 2026-05-05 09:02 | 50.32426 | 5.76017 | 25877 ft | 447 kts | 174° |
| 2026-05-05 09:02 | 50.29337 | 5.76608 | 26185 ft | 448 kts | 174° |
| 2026-05-05 09:03 | 50.26241 | 5.77220 | 26480 ft | 449 kts | 172° |
| 2026-05-05 09:03 | 50.23193 | 5.78315 | 26820 ft | 449 kts | 165° |
| 2026-05-05 09:03 | 50.20200 | 5.79663 | 27232 ft | 447 kts | 165° |
| 2026-05-05 09:03 | 50.17218 | 5.80999 | 27639 ft | 445 kts | 166° |
| 2026-05-05 09:04 | 50.14247 | 5.82319 | 28034 ft | 443 kts | 166° |
| 2026-05-05 09:04 | 50.11279 | 5.83628 | 28414 ft | 442 kts | 166° |
| 2026-05-05 09:04 | 50.08324 | 5.84930 | 28795 ft | 440 kts | 166° |
| 2026-05-05 09:04 | 50.05381 | 5.86226 | 29173 ft | 439 kts | 166° |
| 2026-05-05 09:05 | 50.02442 | 5.87526 | 29560 ft | 438 kts | 166° |
| 2026-05-05 09:05 | 49.99542 | 5.88963 | 29938 ft | 438 kts | 158° |
| 2026-05-05 09:05 | 49.96824 | 5.91126 | 30242 ft | 438 kts | 154° |
| 2026-05-05 09:05 | 49.94140 | 5.93368 | 30499 ft | 439 kts | 155° |
| 2026-05-05 09:06 | 49.91447 | 5.95620 | 30713 ft | 441 kts | 155° |
| 2026-05-05 09:06 | 49.88751 | 5.97874 | 31004 ft | 440 kts | 155° |
| 2026-05-05 09:06 | 49.86062 | 6.00125 | 31334 ft | 438 kts | 155° |
| 2026-05-05 09:06 | 49.83389 | 6.02360 | 31693 ft | 436 kts | 156° |
| 2026-05-05 09:07 | 49.80724 | 6.04584 | 32058 ft | 433 kts | 156° |
| 2026-05-05 09:07 | 49.78085 | 6.06781 | 32499 ft | 429 kts | 156° |
| 2026-05-05 09:07 | 49.75462 | 6.08956 | 32807 ft | 427 kts | 156° |
| 2026-05-05 09:08 | 49.70264 | 6.13265 | 32866 ft | 422 kts | 157° |
| 2026-05-05 09:08 | 49.65126 | 6.17519 | 32865 ft | 421 kts | 157° |
| 2026-05-05 09:09 | 49.59925 | 6.21812 | 32867 ft | 421 kts | 157° |
| 2026-05-05 09:09 | 49.54800 | 6.26032 | 32866 ft | 419 kts | 156° |
| 2026-05-05 09:10 | 49.49634 | 6.30293 | 32848 ft | 418 kts | 157° |
| 2026-05-05 09:10 | 49.44489 | 6.34496 | 32854 ft | 419 kts | 157° |
| 2026-05-05 09:11 | 49.39378 | 6.38687 | 32859 ft | 419 kts | 157° |
| 2026-05-05 09:11 | 49.34220 | 6.42893 | 32863 ft | 419 kts | 156° |
| 2026-05-05 09:12 | 49.29070 | 6.47074 | 32871 ft | 419 kts | 156° |
| 2026-05-05 09:12 | 49.23925 | 6.51238 | 32878 ft | 418 kts | 156° |
| 2026-05-05 09:13 | 49.18782 | 6.55397 | 32885 ft | 418 kts | 156° |
| 2026-05-05 09:13 | 49.13636 | 6.59549 | 32886 ft | 418 kts | 156° |
| 2026-05-05 09:14 | 49.08497 | 6.63690 | 32875 ft | 417 kts | 156° |
| 2026-05-05 09:14 | 49.03374 | 6.67823 | 32898 ft | 416 kts | 156° |
| 2026-05-05 09:15 | 48.98054 | 6.70953 | 32897 ft | 406 kts | 172° |
| 2026-05-05 09:15 | 48.92477 | 6.71372 | 32894 ft | 401 kts | 184° |
| 2026-05-05 09:16 | 48.86895 | 6.71137 | 32899 ft | 401 kts | 182° |
| 2026-05-05 09:16 | 48.81318 | 6.70938 | 32902 ft | 401 kts | 182° |
| 2026-05-05 09:17 | 48.75738 | 6.70732 | 32893 ft | 400 kts | 182° |
| 2026-05-05 09:17 | 48.70165 | 6.70510 | 32889 ft | 400 kts | 182° |
| 2026-05-05 09:18 | 48.64595 | 6.70287 | 32894 ft | 400 kts | 182° |
| 2026-05-05 09:18 | 48.59031 | 6.70069 | 32886 ft | 400 kts | 182° |
| 2026-05-05 09:19 | 48.53473 | 6.69853 | 32883 ft | 400 kts | 182° |
| 2026-05-05 09:19 | 48.47911 | 6.69647 | 32881 ft | 400 kts | 182° |
| 2026-05-05 09:20 | 48.42351 | 6.69437 | 32880 ft | 400 kts | 182° |
| 2026-05-05 09:20 | 48.36832 | 6.69220 | 32876 ft | 399 kts | 182° |
| 2026-05-05 09:21 | 48.31275 | 6.69007 | 32876 ft | 399 kts | 182° |
| 2026-05-05 09:21 | 48.25721 | 6.68798 | 32875 ft | 399 kts | 182° |
| 2026-05-05 09:22 | 48.20167 | 6.68582 | 32875 ft | 399 kts | 182° |
| 2026-05-05 09:22 | 48.14608 | 6.68365 | 32872 ft | 399 kts | 182° |
| 2026-05-05 09:23 | 48.09054 | 6.68149 | 32867 ft | 399 kts | 182° |
| 2026-05-05 09:23 | 48.03491 | 6.67941 | 32868 ft | 399 kts | 182° |
| 2026-05-05 09:24 | 47.97934 | 6.67725 | 32861 ft | 400 kts | 181° |
| 2026-05-05 09:24 | 47.92369 | 6.67515 | 32861 ft | 400 kts | 181° |
| 2026-05-05 09:25 | 47.86798 | 6.67310 | 32862 ft | 400 kts | 181° |
| 2026-05-05 09:25 | 47.81226 | 6.67101 | 32859 ft | 401 kts | 181° |
| 2026-05-05 09:26 | 47.75647 | 6.66893 | 32858 ft | 402 kts | 181° |
| 2026-05-05 09:26 | 47.70051 | 6.66678 | 32860 ft | 402 kts | 181° |
| 2026-05-05 09:27 | 47.64452 | 6.66465 | 32867 ft | 403 kts | 181° |
| 2026-05-05 09:27 | 47.58850 | 6.66259 | 32869 ft | 403 kts | 181° |
| 2026-05-05 09:28 | 47.53227 | 6.66046 | 32866 ft | 405 kts | 181° |
| 2026-05-05 09:28 | 47.47595 | 6.65837 | 32869 ft | 405 kts | 181° |
| 2026-05-05 09:29 | 47.41978 | 6.65142 | 32869 ft | 406 kts | 192° |
| 2026-05-05 09:29 | 47.36808 | 6.61784 | 32861 ft | 412 kts | 212° |
| 2026-05-05 09:30 | 47.32366 | 6.56357 | 32861 ft | 416 kts | 217° |
| 2026-05-05 09:30 | 47.27952 | 6.50829 | 32856 ft | 417 kts | 217° |
| 2026-05-05 09:31 | 47.23525 | 6.45298 | 32861 ft | 418 kts | 217° |
| 2026-05-05 09:31 | 47.19087 | 6.39769 | 32864 ft | 418 kts | 217° |
| 2026-05-05 09:32 | 47.15390 | 6.35173 | 32862 ft | 419 kts | 217° |
| 2026-05-05 09:32 | 47.10933 | 6.29645 | 32872 ft | 420 kts | 217° |
| 2026-05-05 09:33 | 47.06063 | 6.25061 | 32866 ft | 415 kts | 200° |
| 2026-05-05 09:33 | 47.00493 | 6.23125 | 32861 ft | 412 kts | 185° |
| 2026-05-05 09:34 | 46.94789 | 6.22379 | 32865 ft | 412 kts | 185° |
| 2026-05-05 09:34 | 46.89061 | 6.21609 | 32869 ft | 413 kts | 185° |
| 2026-05-05 09:35 | 46.83332 | 6.20840 | 32878 ft | 414 kts | 185° |
| 2026-05-05 09:35 | 46.74723 | 6.19697 | 32887 ft | 414 kts | 186° |
| 2026-05-05 09:36 | 46.68985 | 6.18943 | 32890 ft | 414 kts | 186° |
| 2026-05-05 09:36 | 46.63245 | 6.18185 | 32895 ft | 414 kts | 186° |
| 2026-05-05 09:37 | 46.57499 | 6.17420 | 32896 ft | 414 kts | 186° |
| 2026-05-05 09:37 | 46.51758 | 6.16663 | 32895 ft | 414 kts | 186° |
| 2026-05-05 09:38 | 46.46020 | 6.15915 | 32899 ft | 414 kts | 186° |
| 2026-05-05 09:38 | 46.40282 | 6.15165 | 32913 ft | 414 kts | 186° |
| 2026-05-05 09:39 | 46.34539 | 6.14407 | 32912 ft | 414 kts | 186° |
| 2026-05-05 09:39 | 46.28801 | 6.13656 | 32915 ft | 414 kts | 186° |
| 2026-05-05 09:40 | 46.23058 | 6.12837 | 32920 ft | 414 kts | 188° |
| 2026-05-05 09:40 | 46.17362 | 6.11588 | 32925 ft | 414 kts | 190° |
| 2026-05-05 09:41 | 46.11675 | 6.10198 | 32925 ft | 414 kts | 190° |
| 2026-05-05 09:41 | 46.06018 | 6.08892 | 32924 ft | 414 kts | 189° |
| 2026-05-05 09:42 | 46.00325 | 6.07642 | 32910 ft | 414 kts | 190° |
| 2026-05-05 09:42 | 45.94642 | 6.06397 | 32914 ft | 413 kts | 190° |
| 2026-05-05 09:43 | 45.88945 | 6.05144 | 32911 ft | 413 kts | 190° |
| 2026-05-05 09:43 | 45.83266 | 6.03900 | 32913 ft | 413 kts | 190° |
| 2026-05-05 09:44 | 45.77581 | 6.02646 | 32910 ft | 413 kts | 191° |
| 2026-05-05 09:44 | 45.71910 | 6.01385 | 32914 ft | 413 kts | 191° |
| 2026-05-05 09:45 | 45.66234 | 6.00128 | 32939 ft | 412 kts | 191° |
| 2026-05-05 09:45 | 45.60558 | 5.98887 | 32933 ft | 412 kts | 191° |
| 2026-05-05 09:46 | 45.54886 | 5.97649 | 32933 ft | 412 kts | 191° |
| 2026-05-05 09:46 | 45.49214 | 5.96406 | 32931 ft | 412 kts | 191° |
| 2026-05-05 09:47 | 45.43572 | 5.94963 | 32924 ft | 411 kts | 194° |
| 2026-05-05 09:47 | 45.37995 | 5.93146 | 32938 ft | 411 kts | 196° |
| 2026-05-05 09:48 | 45.32434 | 5.91294 | 32941 ft | 411 kts | 195° |
| 2026-05-05 09:48 | 45.26850 | 5.89529 | 32942 ft | 410 kts | 195° |
| 2026-05-05 09:49 | 45.21267 | 5.87812 | 32933 ft | 409 kts | 195° |
| 2026-05-05 09:49 | 45.15745 | 5.86112 | 32932 ft | 408 kts | 196° |
| 2026-05-05 09:50 | 45.10209 | 5.84400 | 32933 ft | 407 kts | 196° |
| 2026-05-05 09:50 | 45.04671 | 5.82678 | 32936 ft | 407 kts | 196° |
| 2026-05-05 09:51 | 44.99143 | 5.80968 | 32940 ft | 405 kts | 197° |
| 2026-05-05 09:51 | 44.93643 | 5.79288 | 32944 ft | 404 kts | 197° |
| 2026-05-05 09:52 | 44.88153 | 5.77612 | 32944 ft | 403 kts | 197° |
| 2026-05-05 09:52 | 44.82673 | 5.75929 | 32935 ft | 402 kts | 197° |
| 2026-05-05 09:53 | 44.77214 | 5.74258 | 32952 ft | 401 kts | 197° |
| 2026-05-05 09:53 | 44.71774 | 5.72590 | 32943 ft | 400 kts | 197° |
| 2026-05-05 09:54 | 44.66333 | 5.70928 | 32990 ft | 400 kts | 197° |
| 2026-05-05 09:54 | 44.60896 | 5.69277 | 32958 ft | 400 kts | 197° |
| 2026-05-05 09:55 | 44.55458 | 5.67628 | 32948 ft | 400 kts | 197° |
| 2026-05-05 09:55 | 44.50018 | 5.65979 | 32944 ft | 400 kts | 197° |
| 2026-05-05 09:56 | 44.44570 | 5.64323 | 32937 ft | 401 kts | 197° |
| 2026-05-05 09:56 | 44.39123 | 5.62686 | 32950 ft | 399 kts | 198° |
| 2026-05-05 09:57 | 44.33947 | 5.60128 | 32951 ft | 394 kts | 205° |
| 2026-05-05 09:57 | 44.28877 | 5.57342 | 32950 ft | 394 kts | 205° |
| 2026-05-05 09:58 | 44.23776 | 5.54557 | 32947 ft | 393 kts | 205° |
| 2026-05-05 09:58 | 44.18707 | 5.51794 | 32944 ft | 391 kts | 205° |
| 2026-05-05 09:59 | 44.13634 | 5.49028 | 32951 ft | 392 kts | 205° |
| 2026-05-05 09:59 | 44.08563 | 5.46266 | 32939 ft | 391 kts | 205° |
| 2026-05-05 10:00 | 44.03498 | 5.43514 | 32944 ft | 390 kts | 205° |
| 2026-05-05 10:00 | 43.98464 | 5.40781 | 32950 ft | 390 kts | 205° |
| 2026-05-05 10:01 | 43.93437 | 5.38061 | 32941 ft | 390 kts | 205° |
| 2026-05-05 10:01 | 43.88353 | 5.35307 | 32917 ft | 390 kts | 205° |
| 2026-05-05 10:02 | 43.83293 | 5.32575 | 32964 ft | 390 kts | 205° |
| 2026-05-05 10:02 | 43.78263 | 5.29870 | 32961 ft | 390 kts | 205° |
| 2026-05-05 10:03 | 43.73213 | 5.27157 | 32949 ft | 389 kts | 205° |
| 2026-05-05 10:03 | 43.68168 | 5.24447 | 32921 ft | 389 kts | 206° |
| 2026-05-05 10:04 | 43.63120 | 5.21745 | 32929 ft | 389 kts | 206° |
| 2026-05-05 10:04 | 43.58065 | 5.19033 | 32932 ft | 389 kts | 206° |
| 2026-05-05 10:05 | 43.53017 | 5.16323 | 32925 ft | 389 kts | 205° |
| 2026-05-05 10:05 | 43.47961 | 5.13626 | 32944 ft | 390 kts | 205° |
| 2026-05-05 10:06 | 43.42892 | 5.10939 | 32949 ft | 390 kts | 205° |
| 2026-05-05 10:06 | 43.37933 | 5.07987 | 32951 ft | 386 kts | 214° |
| 2026-05-05 10:07 | 43.33495 | 5.03857 | 32950 ft | 385 kts | 217° |
| 2026-05-05 10:07 | 43.29111 | 4.99715 | 32925 ft | 386 kts | 217° |
| 2026-05-05 10:08 | 43.24682 | 4.95538 | 32919 ft | 387 kts | 217° |
| 2026-05-05 10:08 | 43.20600 | 4.91703 | 32965 ft | 387 kts | 217° |
| 2026-05-05 10:09 | 43.16245 | 4.87626 | 32965 ft | 386 kts | 217° |
| 2026-05-05 10:09 | 43.12955 | 4.84544 | 32962 ft | 386 kts | 217° |
| 2026-05-05 10:10 | 43.09304 | 4.81130 | 32932 ft | 386 kts | 217° |
| 2026-05-05 10:10 | 43.05195 | 4.77368 | 32934 ft | 388 kts | 213° |
| 2026-05-05 10:11 | 43.00587 | 4.73867 | 32940 ft | 390 kts | 212° |
| 2026-05-05 10:11 | 42.96301 | 4.70618 | 32943 ft | 390 kts | 212° |
| 2026-05-05 10:12 | 42.91567 | 4.67032 | 32929 ft | 390 kts | 212° |
| 2026-05-05 10:12 | 42.86855 | 4.63476 | 32935 ft | 391 kts | 212° |
| 2026-05-05 10:13 | 42.82950 | 4.60533 | 32939 ft | 391 kts | 212° |
| 2026-05-05 10:13 | 42.79142 | 4.57663 | 32942 ft | 391 kts | 212° |
| 2026-05-05 10:14 | 42.75121 | 4.54634 | 32974 ft | 391 kts | 212° |
| 2026-05-05 10:14 | 42.72166 | 4.52410 | 32974 ft | 390 kts | 212° |
| 2026-05-05 10:15 | 42.68679 | 4.49791 | 32977 ft | 389 kts | 212° |
| 2026-05-05 10:15 | 42.64498 | 4.46658 | 32974 ft | 389 kts | 212° |
| 2026-05-05 10:16 | 42.59762 | 4.43118 | 32973 ft | 389 kts | 212° |
| 2026-05-05 10:16 | 42.55026 | 4.39575 | 32966 ft | 389 kts | 212° |
| 2026-05-05 10:17 | 42.50290 | 4.36040 | 32934 ft | 389 kts | 212° |
| 2026-05-05 10:17 | 42.45538 | 4.32507 | 32938 ft | 390 kts | 212° |
| 2026-05-05 10:18 | 42.40763 | 4.28961 | 32946 ft | 391 kts | 212° |
| 2026-05-05 10:18 | 42.35993 | 4.25418 | 32951 ft | 391 kts | 212° |
| 2026-05-05 10:19 | 42.31210 | 4.21881 | 32932 ft | 392 kts | 212° |
| 2026-05-05 10:19 | 42.26428 | 4.18354 | 32967 ft | 392 kts | 212° |
| 2026-05-05 10:20 | 42.21635 | 4.14811 | 32980 ft | 392 kts | 212° |
| 2026-05-05 10:20 | 42.16846 | 4.11284 | 32978 ft | 392 kts | 212° |
| 2026-05-05 10:21 | 42.12065 | 4.07768 | 32953 ft | 391 kts | 212° |
| 2026-05-05 10:21 | 42.07278 | 4.04259 | 32958 ft | 392 kts | 212° |
| 2026-05-05 10:22 | 42.02490 | 4.00750 | 32958 ft | 392 kts | 212° |
| 2026-05-05 10:22 | 41.97695 | 3.97242 | 32959 ft | 392 kts | 212° |
| 2026-05-05 10:23 | 41.92844 | 3.93889 | 32959 ft | 396 kts | 206° |
| 2026-05-05 10:23 | 41.87406 | 3.92213 | 32945 ft | 405 kts | 196° |
| 2026-05-05 10:24 | 41.81847 | 3.90938 | 32952 ft | 405 kts | 196° |
| 2026-05-05 10:24 | 41.76334 | 3.89663 | 32955 ft | 405 kts | 196° |
| 2026-05-05 10:25 | 41.70776 | 3.88382 | 32936 ft | 405 kts | 197° |
| 2026-05-05 10:25 | 41.65218 | 3.87103 | 32944 ft | 405 kts | 197° |
| 2026-05-05 10:26 | 41.59669 | 3.85821 | 32947 ft | 404 kts | 197° |
| 2026-05-05 10:26 | 41.54126 | 3.84549 | 32962 ft | 404 kts | 197° |
| 2026-05-05 10:27 | 41.48580 | 3.83281 | 32932 ft | 404 kts | 197° |
| 2026-05-05 10:27 | 41.43040 | 3.82023 | 32952 ft | 403 kts | 197° |
| 2026-05-05 10:28 | 41.37517 | 3.80767 | 32977 ft | 402 kts | 197° |
| 2026-05-05 10:28 | 41.32006 | 3.79504 | 32988 ft | 401 kts | 197° |
| 2026-05-05 10:29 | 41.26542 | 3.78254 | 32960 ft | 401 kts | 198° |
| 2026-05-05 10:29 | 41.21050 | 3.77005 | 32962 ft | 400 kts | 197° |
| 2026-05-05 10:30 | 41.15585 | 3.75697 | 32962 ft | 395 kts | 202° |
| 2026-05-05 10:30 | 41.10494 | 3.73203 | 32964 ft | 389 kts | 208° |
| 2026-05-05 10:31 | 41.05436 | 3.70592 | 32914 ft | 390 kts | 207° |
| 2026-05-05 10:31 | 41.00374 | 3.68003 | 32914 ft | 390 kts | 208° |
| 2026-05-05 10:32 | 40.95313 | 3.65407 | 32835 ft | 391 kts | 208° |
| 2026-05-05 10:32 | 40.92781 | 3.64106 | 32564 ft | 391 kts | 208° |
| 2026-05-05 10:32 | 40.90248 | 3.62801 | 32305 ft | 391 kts | 208° |
| 2026-05-05 10:33 | 40.87708 | 3.61492 | 32045 ft | 392 kts | 208° |
| 2026-05-05 10:33 | 40.85161 | 3.60182 | 31507 ft | 393 kts | 207° |
| 2026-05-05 10:33 | 40.82606 | 3.58872 | 30765 ft | 394 kts | 207° |
| 2026-05-05 10:33 | 40.80044 | 3.57565 | 30004 ft | 396 kts | 207° |
| 2026-05-05 10:34 | 40.77462 | 3.56249 | 29095 ft | 399 kts | 207° |
| 2026-05-05 10:34 | 40.74870 | 3.54931 | 28233 ft | 400 kts | 207° |
| 2026-05-05 10:34 | 40.72271 | 3.53613 | 27388 ft | 401 kts | 206° |
| 2026-05-05 10:34 | 40.69662 | 3.52284 | 26493 ft | 403 kts | 206° |
| 2026-05-05 10:35 | 40.67032 | 3.50940 | 25552 ft | 407 kts | 206° |
| 2026-05-05 10:35 | 40.64378 | 3.49585 | 24609 ft | 411 kts | 206° |
| 2026-05-05 10:35 | 40.61707 | 3.48228 | 23754 ft | 413 kts | 205° |
| 2026-05-05 10:35 | 40.59023 | 3.46869 | 22898 ft | 412 kts | 205° |
| 2026-05-05 10:36 | 40.56367 | 3.45527 | 22232 ft | 406 kts | 205° |
| 2026-05-05 10:36 | 40.53773 | 3.44218 | 21588 ft | 401 kts | 205° |
| 2026-05-05 10:36 | 40.51181 | 3.42910 | 20950 ft | 397 kts | 205° |
| 2026-05-05 10:36 | 40.48621 | 3.41616 | 20312 ft | 392 kts | 205° |
| 2026-05-05 10:37 | 40.46082 | 3.40333 | 19691 ft | 388 kts | 205° |
| 2026-05-05 10:37 | 40.43570 | 3.39062 | 19065 ft | 385 kts | 205° |
| 2026-05-05 10:37 | 40.41092 | 3.37765 | 18390 ft | 382 kts | 206° |
| 2026-05-05 10:37 | 40.38640 | 3.36432 | 17711 ft | 379 kts | 206° |
| 2026-05-05 10:38 | 40.36220 | 3.35087 | 17088 ft | 375 kts | 206° |
| 2026-05-05 10:38 | 40.33829 | 3.33759 | 16491 ft | 371 kts | 205° |
| 2026-05-05 10:38 | 40.31313 | 3.32759 | 15893 ft | 384 kts | 198° |
| 2026-05-05 10:38 | 40.28720 | 3.31912 | 15343 ft | 385 kts | 197° |
| 2026-05-05 10:39 | 40.26124 | 3.31058 | 14771 ft | 383 kts | 197° |
| 2026-05-05 10:39 | 40.23550 | 3.30195 | 14223 ft | 380 kts | 197° |
| 2026-05-05 10:39 | 40.20995 | 3.29324 | 13672 ft | 378 kts | 197° |
| 2026-05-05 10:39 | 40.18488 | 3.28453 | 13050 ft | 376 kts | 197° |
| 2026-05-05 10:40 | 40.15968 | 3.27565 | 12463 ft | 374 kts | 197° |
| 2026-05-05 10:40 | 40.13469 | 3.26671 | 11883 ft | 371 kts | 197° |
| 2026-05-05 10:40 | 40.10991 | 3.25773 | 11301 ft | 368 kts | 197° |
| 2026-05-05 10:40 | 40.08533 | 3.24868 | 10738 ft | 366 kts | 197° |
| 2026-05-05 10:41 | 40.06095 | 3.23958 | 10181 ft | 363 kts | 197° |
| 2026-05-05 10:41 | 40.03685 | 3.23046 | 9605 ft | 359 kts | 197° |
| 2026-05-05 10:41 | 40.01299 | 3.22135 | 9021 ft | 355 kts | 197° |
| 2026-05-05 10:41 | 39.98939 | 3.21234 | 8420 ft | 352 kts | 197° |
| 2026-05-05 10:42 | 39.94406 | 3.19500 | 7261 ft | 319 kts | 197° |
| 2026-05-05 10:42 | 39.92321 | 3.18705 | 6704 ft | 311 kts | 197° |
| 2026-05-05 10:42 | 39.90245 | 3.17917 | 6318 ft | 307 kts | 197° |
| 2026-05-05 10:43 | 39.88236 | 3.17159 | 6164 ft | 295 kts | 197° |
| 2026-05-05 10:43 | 39.86306 | 3.16428 | 6009 ft | 284 kts | 197° |
| 2026-05-05 10:43 | 39.84544 | 3.15437 | 5845 ft | 271 kts | 216° |
| 2026-05-05 10:43 | 39.83116 | 3.13902 | 5635 ft | 259 kts | 221° |
| 2026-05-05 10:44 | 39.81821 | 3.12380 | 5426 ft | 243 kts | 222° |
| 2026-05-05 10:44 | 39.80605 | 3.10938 | 5233 ft | 232 kts | 222° |
| 2026-05-05 10:44 | 39.79433 | 3.09545 | 5034 ft | 226 kts | 222° |
| 2026-05-05 10:44 | 39.78279 | 3.08165 | 4843 ft | 225 kts | 222° |
| 2026-05-05 10:45 | 39.77134 | 3.06787 | 4691 ft | 222 kts | 222° |
| 2026-05-05 10:45 | 39.75998 | 3.05419 | 4631 ft | 222 kts | 223° |
| 2026-05-05 10:45 | 39.74872 | 3.04062 | 4591 ft | 220 kts | 222° |
| 2026-05-05 10:45 | 39.73746 | 3.02707 | 4536 ft | 223 kts | 223° |
| 2026-05-05 10:46 | 39.72614 | 3.01353 | 4482 ft | 222 kts | 220° |
| 2026-05-05 10:46 | 39.71348 | 3.00191 | 4257 ft | 223 kts | 212° |
| 2026-05-05 10:46 | 39.70020 | 2.99163 | 3983 ft | 221 kts | 210° |
| 2026-05-05 10:46 | 39.68700 | 2.98161 | 3714 ft | 219 kts | 211° |
| 2026-05-05 10:47 | 39.67387 | 2.97168 | 3443 ft | 217 kts | 213° |
| 2026-05-05 10:47 | 39.66356 | 2.95808 | 3178 ft | 211 kts | 236° |
| 2026-05-05 10:47 | 39.65608 | 2.94212 | 3025 ft | 199 kts | 237° |
| 2026-05-05 10:47 | 39.64929 | 2.92750 | 3002 ft | 185 kts | 238° |
| 2026-05-05 10:48 | 39.64288 | 2.91381 | 2940 ft | 170 kts | 236° |
| 2026-05-05 10:48 | 39.63700 | 2.90128 | 2794 ft | 156 kts | 236° |
| 2026-05-05 10:48 | 39.63154 | 2.88965 | 2619 ft | 146 kts | 235° |
| 2026-05-05 10:48 | 39.62637 | 2.87867 | 2426 ft | 140 kts | 236° |
| 2026-05-05 10:49 | 39.62126 | 2.86782 | 2241 ft | 141 kts | 237° |
| 2026-05-05 10:49 | 39.61613 | 2.85694 | 2057 ft | 142 kts | 236° |
| 2026-05-05 10:49 | 39.61103 | 2.84610 | 1870 ft | 140 kts | 234° |
| 2026-05-05 10:49 | 39.60605 | 2.83553 | 1689 ft | 137 kts | 236° |
| 2026-05-05 10:50 | 39.60108 | 2.82497 | 1507 ft | 136 kts | 236° |
| 2026-05-05 10:50 | 39.59618 | 2.81459 | 1312 ft | 138 kts | 237° |
| 2026-05-05 10:50 | 39.59121 | 2.80404 | 1144 ft | 138 kts | 237° |
| 2026-05-05 10:50 | 39.58624 | 2.79351 | 959 ft | 137 kts | 236° |
| 2026-05-05 10:51 | 39.58121 | 2.78284 | 773 ft | 139 kts | 236° |
| 2026-05-05 10:51 | 39.57623 | 2.77223 | 577 ft | 136 kts | 238° |
| 2026-05-05 10:51 | 39.57143 | 2.76173 | 431 ft | 137 kts | 239° |
| 2026-05-05 10:51 | 39.56651 | 2.75138 | 225 ft | 133 kts | 238° |
| 2026-05-05 10:52 | 39.56173 | 2.74142 | 58 ft | 131 kts | 238° |
| 2026-05-05 10:52 | 39.55740 | 2.73232 | 32 ft | 93 kts | 238° |
| 2026-05-05 10:52 | 39.55495 | 2.72716 | 30 ft | 45 kts | 238° |
| 2026-05-05 10:52 | 39.55349 | 2.72410 | 28 ft | 25 kts | 238° |
| 2026-05-05 10:53 | 39.55253 | 2.72356 | 27 ft | 15 kts | 152° |
| 2026-05-05 10:53 | 39.55173 | 2.72421 | 28 ft | 13 kts | 148° |
| 2026-05-05 10:53 | 39.55121 | 2.72488 | 29 ft | 10 kts | 149° |
| 2026-05-05 10:53 | 39.55068 | 2.72530 | 29 ft | 8 kts | 149° |
| 2026-05-05 10:54 | 39.55040 | 2.72584 | 29 ft | 9 kts | 86° |
| 2026-05-05 10:54 | 39.55077 | 2.72673 | 30 ft | 12 kts | 58° |
| 2026-05-05 10:54 | 39.55116 | 2.72755 | 30 ft | 10 kts | 58° |
| 2026-05-05 10:54 | 39.55149 | 2.72824 | 31 ft | 9 kts | 59° |
| 2026-05-05 10:55 | 39.55195 | 2.72924 | 31 ft | 14 kts | 59° |
| 2026-05-05 10:55 | 39.55243 | 2.73028 | 32 ft | 12 kts | 59° |
| 2026-05-05 10:55 | 39.55303 | 2.73157 | 32 ft | 26 kts | 58° |
| 2026-05-05 10:55 | 39.55397 | 2.73350 | 33 ft | 15 kts | 58° |
| 2026-05-05 10:56 | 39.55406 | 2.73455 | 32 ft | 12 kts | 123° |
| 2026-05-05 10:56 | 39.55341 | 2.73508 | 33 ft | 11 kts | 150° |
| 2026-05-05 10:56 | 39.55277 | 2.73561 | 33 ft | 10 kts | 144° |
| 2026-05-05 10:56 | 39.55218 | 2.73607 | 33 ft | 9 kts | 152° |
| 2026-05-05 10:57 | 39.55173 | 2.73587 | 33 ft | 7 kts | 209° |
| 2026-05-05 10:57 | 39.55109 | 2.73573 | 33 ft | 6 kts | 156° |
| 2026-05-05 10:57 | 39.55087 | 2.73582 | 32 ft | 2 kts | 163° |
| 2026-05-05 10:57 | 39.55061 | 2.73592 | 34 ft | 2 kts | 163° |